sensor_id;sensor_type;location;lat;lon;timestamp;pressure;altitude;pressure_sealevel;temperature;humidity
53340;BME280;46212;50.258;19.062;2023-05-11T00:01:02;98649.59;;;9.77;58.69
53340;BME280;46212;50.258;19.062;2023-05-11T00:03:28;98646.38;;;9.78;58.60
53340;BME280;46212;50.258;19.062;2023-05-11T00:05:53;98641.47;;;9.73;58.46
53340;BME280;46212;50.258;19.062;2023-05-11T00:08:18;98647.41;;;9.72;58.45
53340;BME280;46212;50.258;19.062;2023-05-11T00:10:47;98648.91;;;9.64;58.89
53340;BME280;46212;50.258;19.062;2023-05-11T00:13:12;98642.97;;;9.52;60.05
53340;BME280;46212;50.258;19.062;2023-05-11T00:15:38;98640.81;;;9.47;59.99
53340;BME280;46212;50.258;19.062;2023-05-11T00:18:03;98644.47;;;9.44;59.85
53340;BME280;46212;50.258;19.062;2023-05-11T00:20:29;98647.53;;;9.46;59.56
53340;BME280;46212;50.258;19.062;2023-05-11T00:22:54;98651.84;;;9.47;59.49
53340;BME280;46212;50.258;19.062;2023-05-11T00:25:19;98647.00;;;9.39;59.99
53340;BME280;46212;50.258;19.062;2023-05-11T00:27:45;98637.44;;;9.31;60.25
53340;BME280;46212;50.258;19.062;2023-05-11T00:30:12;98644.28;;;9.26;60.89
53340;BME280;46212;50.258;19.062;2023-05-11T00:32:39;98643.78;;;9.19;61.47
53340;BME280;46212;50.258;19.062;2023-05-11T00:35:05;98644.09;;;9.21;61.12
53340;BME280;46212;50.258;19.062;2023-05-11T00:37:30;98647.94;;;9.23;61.02
53340;BME280;46212;50.258;19.062;2023-05-11T00:39:56;98632.97;;;9.12;61.35
53340;BME280;46212;50.258;19.062;2023-05-11T00:42:21;98645.94;;;8.89;62.22
53340;BME280;46212;50.258;19.062;2023-05-11T00:44:46;98642.50;;;8.85;62.51
53340;BME280;46212;50.258;19.062;2023-05-11T00:47:12;98630.75;;;8.72;62.94
53340;BME280;46212;50.258;19.062;2023-05-11T00:49:38;98647.25;;;8.85;62.85
53340;BME280;46212;50.258;19.062;2023-05-11T00:52:04;98644.25;;;8.92;62.89
53340;BME280;46212;50.258;19.062;2023-05-11T00:54:30;98642.28;;;8.92;63.05
53340;BME280;46212;50.258;19.062;2023-05-11T00:56:55;98638.78;;;8.79;63.70
53340;BME280;46212;50.258;19.062;2023-05-11T00:59:21;98648.13;;;8.82;64.16
53340;BME280;46212;50.258;19.062;2023-05-11T01:01:47;98643.94;;;8.90;64.17
53340;BME280;46212;50.258;19.062;2023-05-11T01:04:13;98642.94;;;8.96;63.75
53340;BME280;46212;50.258;19.062;2023-05-11T01:06:58;98644.06;;;8.86;63.62
53340;BME280;46212;50.258;19.062;2023-05-11T01:09:50;98642.41;;;8.76;63.86
53340;BME280;46212;50.258;19.062;2023-05-11T01:12:29;98641.31;;;8.74;63.86
53340;BME280;46212;50.258;19.062;2023-05-11T01:15:21;98646.50;;;8.72;63.97
53340;BME280;46212;50.258;19.062;2023-05-11T01:20:30;98640.25;;;8.59;64.68
53340;BME280;46212;50.258;19.062;2023-05-11T01:30:56;98645.97;;;8.39;65.21
53340;BME280;46212;50.258;19.062;2023-05-11T01:33:30;98639.91;;;8.31;65.12
53340;BME280;46212;50.258;19.062;2023-05-11T01:36:01;98642.22;;;8.33;66.33
53340;BME280;46212;50.258;19.062;2023-05-11T01:38:30;98638.38;;;8.30;66.76
53340;BME280;46212;50.258;19.062;2023-05-11T01:40:59;98644.97;;;8.33;66.38
53340;BME280;46212;50.258;19.062;2023-05-11T01:43:27;98650.91;;;8.31;66.47
53340;BME280;46212;50.258;19.062;2023-05-11T01:45:58;98645.16;;;8.26;66.80
53340;BME280;46212;50.258;19.062;2023-05-11T01:48:27;98655.25;;;8.16;66.72
53340;BME280;46212;50.258;19.062;2023-05-11T01:50:55;98645.03;;;8.17;66.27
53340;BME280;46212;50.258;19.062;2023-05-11T01:53:26;98647.78;;;8.17;66.33
53340;BME280;46212;50.258;19.062;2023-05-11T01:55:54;98640.41;;;8.14;66.47
53340;BME280;46212;50.258;19.062;2023-05-11T01:58:22;98650.31;;;8.11;66.73
53340;BME280;46212;50.258;19.062;2023-05-11T02:00:48;98637.75;;;7.97;66.99
53340;BME280;46212;50.258;19.062;2023-05-11T02:03:17;98642.47;;;7.97;67.54
53340;BME280;46212;50.258;19.062;2023-05-11T02:05:45;98652.03;;;7.92;67.52
53340;BME280;46212;50.258;19.062;2023-05-11T02:08:13;98643.03;;;7.92;67.38
53340;BME280;46212;50.258;19.062;2023-05-11T02:10:40;98652.38;;;7.94;66.96
53340;BME280;46212;50.258;19.062;2023-05-11T02:13:07;98653.47;;;7.97;67.12
53340;BME280;46212;50.258;19.062;2023-05-11T02:15:36;98661.94;;;8.02;66.86
53340;BME280;46212;50.258;19.062;2023-05-11T02:18:05;98654.53;;;7.87;67.33
53340;BME280;46212;50.258;19.062;2023-05-11T02:20:32;98651.47;;;7.85;67.40
53340;BME280;46212;50.258;19.062;2023-05-11T02:22:57;98654.09;;;7.76;67.16
53340;BME280;46212;50.258;19.062;2023-05-11T02:25:24;98651.63;;;7.65;68.28
53340;BME280;46212;50.258;19.062;2023-05-11T02:27:50;98652.97;;;7.73;67.92
53340;BME280;46212;50.258;19.062;2023-05-11T02:30:15;98650.97;;;7.74;67.68
53340;BME280;46212;50.258;19.062;2023-05-11T02:32:50;98659.69;;;7.72;67.77
53340;BME280;46212;50.258;19.062;2023-05-11T02:35:21;98646.34;;;7.71;67.79
53340;BME280;46212;50.258;19.062;2023-05-11T02:37:48;98645.78;;;7.63;68.04
53340;BME280;46212;50.258;19.062;2023-05-11T02:40:18;98654.22;;;7.56;67.79
53340;BME280;46212;50.258;19.062;2023-05-11T02:42:48;98653.44;;;7.56;68.11
53340;BME280;46212;50.258;19.062;2023-05-11T02:45:18;98656.44;;;7.61;68.21
53340;BME280;46212;50.258;19.062;2023-05-11T02:48:06;98656.16;;;7.72;67.72
53340;BME280;46212;50.258;19.062;2023-05-11T02:50:36;98652.97;;;7.73;67.36
53340;BME280;46212;50.258;19.062;2023-05-11T02:53:08;98648.63;;;7.60;68.41
53340;BME280;46212;50.258;19.062;2023-05-11T02:55:35;98647.81;;;7.46;68.89
53340;BME280;46212;50.258;19.062;2023-05-11T02:58:00;98647.91;;;7.43;68.70
53340;BME280;46212;50.258;19.062;2023-05-11T03:00:26;98659.03;;;7.52;68.91
53340;BME280;46212;50.258;19.062;2023-05-11T03:02:51;98651.06;;;7.58;69.04
53340;BME280;46212;50.258;19.062;2023-05-11T03:05:16;98650.72;;;7.56;69.08
53340;BME280;46212;50.258;19.062;2023-05-11T03:07:42;98657.75;;;7.57;68.82
53340;BME280;46212;50.258;19.062;2023-05-11T03:10:08;98656.34;;;7.65;68.93
53340;BME280;46212;50.258;19.062;2023-05-11T03:12:34;98653.34;;;7.59;69.11
53340;BME280;46212;50.258;19.062;2023-05-11T03:15:01;98653.28;;;7.63;69.09
53340;BME280;46212;50.258;19.062;2023-05-11T03:17:28;98652.84;;;7.64;68.97
53340;BME280;46212;50.258;19.062;2023-05-11T03:19:55;98653.84;;;7.70;69.05
53340;BME280;46212;50.258;19.062;2023-05-11T03:22:22;98652.63;;;7.71;68.78
53340;BME280;46212;50.258;19.062;2023-05-11T03:24:48;98649.06;;;7.58;70.24
53340;BME280;46212;50.258;19.062;2023-05-11T03:27:15;98655.88;;;7.54;71.12
53340;BME280;46212;50.258;19.062;2023-05-11T03:29:42;98650.47;;;7.50;71.43
53340;BME280;46212;50.258;19.062;2023-05-11T03:32:09;98659.44;;;7.67;71.24
53340;BME280;46212;50.258;19.062;2023-05-11T03:34:35;98657.94;;;7.78;70.19
53340;BME280;46212;50.258;19.062;2023-05-11T03:37:01;98651.38;;;7.88;69.59
53340;BME280;46212;50.258;19.062;2023-05-11T03:39:28;98662.50;;;7.97;69.62
53340;BME280;46212;50.258;19.062;2023-05-11T03:41:57;98650.63;;;8.00;70.04
53340;BME280;46212;50.258;19.062;2023-05-11T03:44:24;98659.09;;;8.06;69.30
53340;BME280;46212;50.258;19.062;2023-05-11T03:46:50;98660.53;;;7.98;69.54
53340;BME280;46212;50.258;19.062;2023-05-11T03:49:17;98654.03;;;8.05;69.07
53340;BME280;46212;50.258;19.062;2023-05-11T03:51:43;98662.19;;;8.08;68.89
53340;BME280;46212;50.258;19.062;2023-05-11T03:54:09;98658.53;;;7.98;69.39
53340;BME280;46212;50.258;19.062;2023-05-11T03:56:36;98660.84;;;8.00;69.66
53340;BME280;46212;50.258;19.062;2023-05-11T03:59:02;98656.44;;;8.02;69.78
53340;BME280;46212;50.258;19.062;2023-05-11T04:01:29;98653.97;;;8.21;68.58
53340;BME280;46212;50.258;19.062;2023-05-11T04:03:55;98653.66;;;8.31;68.23
53340;BME280;46212;50.258;19.062;2023-05-11T04:06:21;98653.31;;;8.29;68.24
53340;BME280;46212;50.258;19.062;2023-05-11T04:08:46;98660.38;;;8.30;68.42
53340;BME280;46212;50.258;19.062;2023-05-11T04:11:12;98668.97;;;8.45;68.03
53340;BME280;46212;50.258;19.062;2023-05-11T04:13:37;98665.34;;;8.48;67.33
53340;BME280;46212;50.258;19.062;2023-05-11T04:16:03;98660.16;;;8.50;67.12
53340;BME280;46212;50.258;19.062;2023-05-11T04:18:28;98669.75;;;8.45;67.11
53340;BME280;46212;50.258;19.062;2023-05-11T04:20:54;98671.06;;;8.53;67.01
53340;BME280;46212;50.258;19.062;2023-05-11T04:23:20;98664.13;;;8.49;67.18
53340;BME280;46212;50.258;19.062;2023-05-11T04:25:45;98665.31;;;8.35;67.38
53340;BME280;46212;50.258;19.062;2023-05-11T04:28:11;98672.66;;;8.26;67.70
53340;BME280;46212;50.258;19.062;2023-05-11T04:30:36;98667.97;;;8.39;67.76
53340;BME280;46212;50.258;19.062;2023-05-11T04:33:02;98666.88;;;8.49;67.99
53340;BME280;46212;50.258;19.062;2023-05-11T04:35:27;98662.16;;;8.49;68.78
53340;BME280;46212;50.258;19.062;2023-05-11T04:37:53;98672.50;;;8.58;69.23
53340;BME280;46212;50.258;19.062;2023-05-11T04:40:18;98676.00;;;8.84;68.22
53340;BME280;46212;50.258;19.062;2023-05-11T04:42:44;98672.66;;;9.14;67.00
53340;BME280;46212;50.258;19.062;2023-05-11T04:45:09;98673.50;;;9.24;65.95
53340;BME280;46212;50.258;19.062;2023-05-11T04:47:35;98670.63;;;9.27;66.53
53340;BME280;46212;50.258;19.062;2023-05-11T04:50:00;98671.56;;;9.46;66.49
53340;BME280;46212;50.258;19.062;2023-05-11T04:52:26;98668.69;;;9.71;65.75
53340;BME280;46212;50.258;19.062;2023-05-11T04:54:51;98664.91;;;9.78;64.79
53340;BME280;46212;50.258;19.062;2023-05-11T04:57:17;98673.25;;;9.87;65.92
53340;BME280;46212;50.258;19.062;2023-05-11T04:59:42;98679.06;;;10.23;64.20
53340;BME280;46212;50.258;19.062;2023-05-11T05:02:08;98671.53;;;10.24;62.95
53340;BME280;46212;50.258;19.062;2023-05-11T05:04:33;98672.22;;;10.37;62.85
53340;BME280;46212;50.258;19.062;2023-05-11T05:06:58;98675.06;;;10.55;61.90
53340;BME280;46212;50.258;19.062;2023-05-11T05:09:24;98677.88;;;10.64;61.36
53340;BME280;46212;50.258;19.062;2023-05-11T05:11:49;98672.06;;;10.71;60.87
53340;BME280;46212;50.258;19.062;2023-05-11T05:14:15;98672.28;;;10.95;60.55
53340;BME280;46212;50.258;19.062;2023-05-11T05:16:40;98671.88;;;11.05;59.38
53340;BME280;46212;50.258;19.062;2023-05-11T05:19:06;98680.78;;;11.09;59.68
53340;BME280;46212;50.258;19.062;2023-05-11T05:21:31;98676.47;;;11.08;58.93
53340;BME280;46212;50.258;19.062;2023-05-11T05:23:56;98678.59;;;11.04;59.69
53340;BME280;46212;50.258;19.062;2023-05-11T05:26:22;98682.53;;;10.85;60.20
53340;BME280;46212;50.258;19.062;2023-05-11T05:28:47;98668.78;;;11.03;59.04
53340;BME280;46212;50.258;19.062;2023-05-11T05:31:13;98671.09;;;11.05;59.12
53340;BME280;46212;50.258;19.062;2023-05-11T05:33:38;98673.34;;;10.97;60.19
53340;BME280;46212;50.258;19.062;2023-05-11T05:36:04;98679.25;;;11.27;58.63
53340;BME280;46212;50.258;19.062;2023-05-11T05:38:29;98671.13;;;11.23;58.85
53340;BME280;46212;50.258;19.062;2023-05-11T05:40:55;98675.56;;;11.20;59.00
53340;BME280;46212;50.258;19.062;2023-05-11T05:43:20;98675.00;;;11.35;58.21
53340;BME280;46212;50.258;19.062;2023-05-11T05:45:46;98673.59;;;11.39;58.90
53340;BME280;46212;50.258;19.062;2023-05-11T05:48:11;98667.91;;;11.43;58.88
53340;BME280;46212;50.258;19.062;2023-05-11T05:50:37;98673.31;;;11.55;58.54
53340;BME280;46212;50.258;19.062;2023-05-11T05:53:02;98676.53;;;11.54;58.05
53340;BME280;46212;50.258;19.062;2023-05-11T05:55:27;98673.78;;;11.63;57.75
53340;BME280;46212;50.258;19.062;2023-05-11T05:57:53;98678.06;;;11.64;57.68
53340;BME280;46212;50.258;19.062;2023-05-11T06:00:18;98673.31;;;11.64;58.06
53340;BME280;46212;50.258;19.062;2023-05-11T06:02:44;98683.47;;;11.77;57.93
53340;BME280;46212;50.258;19.062;2023-05-11T06:05:10;98673.63;;;11.85;57.69
53340;BME280;46212;50.258;19.062;2023-05-11T06:07:35;98687.00;;;11.95;57.64
53340;BME280;46212;50.258;19.062;2023-05-11T06:10:01;98681.13;;;12.11;58.32
53340;BME280;46212;50.258;19.062;2023-05-11T06:12:26;98677.09;;;12.21;58.11
53340;BME280;46212;50.258;19.062;2023-05-11T06:14:52;98678.34;;;12.30;57.94
53340;BME280;46212;50.258;19.062;2023-05-11T06:17:17;98686.63;;;12.39;57.96
53340;BME280;46212;50.258;19.062;2023-05-11T06:19:43;98676.84;;;12.61;56.72
53340;BME280;46212;50.258;19.062;2023-05-11T06:22:08;98680.91;;;12.84;55.50
53340;BME280;46212;50.258;19.062;2023-05-11T06:24:33;98690.84;;;13.00;56.06
53340;BME280;46212;50.258;19.062;2023-05-11T06:26:59;98680.81;;;13.02;55.71
53340;BME280;46212;50.258;19.062;2023-05-11T06:29:24;98695.88;;;13.10;55.49
53340;BME280;46212;50.258;19.062;2023-05-11T06:31:50;98690.16;;;13.14;55.44
53340;BME280;46212;50.258;19.062;2023-05-11T06:34:19;98692.31;;;13.19;55.16
53340;BME280;46212;50.258;19.062;2023-05-11T06:36:45;98682.22;;;13.30;54.87
53340;BME280;46212;50.258;19.062;2023-05-11T06:39:11;98687.03;;;13.45;54.53
53340;BME280;46212;50.258;19.062;2023-05-11T06:41:36;98693.72;;;13.62;54.26
53340;BME280;46212;50.258;19.062;2023-05-11T06:44:02;98689.53;;;13.81;53.63
53340;BME280;46212;50.258;19.062;2023-05-11T06:46:28;98685.72;;;13.93;52.61
53340;BME280;46212;50.258;19.062;2023-05-11T06:48:53;98682.97;;;13.93;54.05
53340;BME280;46212;50.258;19.062;2023-05-11T06:51:19;98677.44;;;14.08;52.68
53340;BME280;46212;50.258;19.062;2023-05-11T06:53:46;98683.19;;;14.19;53.13
53340;BME280;46212;50.258;19.062;2023-05-11T06:56:11;98681.66;;;14.32;52.90
53340;BME280;46212;50.258;19.062;2023-05-11T06:58:36;98685.81;;;14.52;53.12
53340;BME280;46212;50.258;19.062;2023-05-11T07:01:02;98674.47;;;14.70;52.63
53340;BME280;46212;50.258;19.062;2023-05-11T07:03:30;98678.94;;;14.97;50.89
53340;BME280;46212;50.258;19.062;2023-05-11T07:05:55;98678.59;;;15.09;50.58
53340;BME280;46212;50.258;19.062;2023-05-11T07:08:20;98679.50;;;15.21;50.44
53340;BME280;46212;50.258;19.062;2023-05-11T07:10:46;98687.50;;;15.33;49.52
53340;BME280;46212;50.258;19.062;2023-05-11T07:13:11;98669.44;;;15.43;50.04
53340;BME280;46212;50.258;19.062;2023-05-11T07:15:37;98675.66;;;15.53;49.53
53340;BME280;46212;50.258;19.062;2023-05-11T07:18:02;98670.56;;;15.52;49.68
53340;BME280;46212;50.258;19.062;2023-05-11T07:20:28;98673.00;;;15.64;48.83
53340;BME280;46212;50.258;19.062;2023-05-11T07:22:57;98672.94;;;15.79;48.36
53340;BME280;46212;50.258;19.062;2023-05-11T07:25:23;98671.59;;;15.74;49.13
53340;BME280;46212;50.258;19.062;2023-05-11T07:27:49;98672.22;;;15.84;48.62
53340;BME280;46212;50.258;19.062;2023-05-11T07:30:15;98663.28;;;16.00;46.75
53340;BME280;46212;50.258;19.062;2023-05-11T07:32:40;98665.63;;;16.07;46.30
53340;BME280;46212;50.258;19.062;2023-05-11T07:35:06;98671.28;;;16.18;46.17
53340;BME280;46212;50.258;19.062;2023-05-11T07:37:32;98668.94;;;16.11;46.97
53340;BME280;46212;50.258;19.062;2023-05-11T07:39:57;98670.47;;;16.12;46.95
53340;BME280;46212;50.258;19.062;2023-05-11T07:42:23;98665.84;;;16.29;46.10
53340;BME280;46212;50.258;19.062;2023-05-11T07:44:48;98659.81;;;16.36;45.40
53340;BME280;46212;50.258;19.062;2023-05-11T07:47:13;98662.38;;;16.40;45.03
53340;BME280;46212;50.258;19.062;2023-05-11T07:49:39;98667.25;;;16.45;45.60
53340;BME280;46212;50.258;19.062;2023-05-11T07:52:05;98657.38;;;16.49;45.08
53340;BME280;46212;50.258;19.062;2023-05-11T07:54:31;98658.94;;;16.51;46.21
53340;BME280;46212;50.258;19.062;2023-05-11T07:56:56;98661.72;;;16.51;47.08
53340;BME280;46212;50.258;19.062;2023-05-11T07:59:22;98657.94;;;16.54;46.54
53340;BME280;46212;50.258;19.062;2023-05-11T08:01:47;98653.81;;;16.75;45.39
53340;BME280;46212;50.258;19.062;2023-05-11T08:04:13;98655.66;;;16.83;44.81
53340;BME280;46212;50.258;19.062;2023-05-11T08:06:38;98649.56;;;16.85;44.77
53340;BME280;46212;50.258;19.062;2023-05-11T08:09:04;98660.75;;;16.90;46.09
53340;BME280;46212;50.258;19.062;2023-05-11T08:11:30;98655.97;;;16.96;46.96
53340;BME280;46212;50.258;19.062;2023-05-11T08:13:55;98656.09;;;17.19;44.91
53340;BME280;46212;50.258;19.062;2023-05-11T08:16:21;98667.88;;;17.34;44.77
53340;BME280;46212;50.258;19.062;2023-05-11T08:18:46;98659.25;;;17.37;43.88
53340;BME280;46212;50.258;19.062;2023-05-11T08:21:13;98650.34;;;17.33;44.01
53340;BME280;46212;50.258;19.062;2023-05-11T08:23:38;98654.47;;;17.43;43.49
53340;BME280;46212;50.258;19.062;2023-05-11T08:26:04;98653.72;;;17.48;42.23
53340;BME280;46212;50.258;19.062;2023-05-11T08:28:29;98647.13;;;17.51;42.74
53340;BME280;46212;50.258;19.062;2023-05-11T08:30:55;98653.53;;;17.58;41.51
53340;BME280;46212;50.258;19.062;2023-05-11T08:33:21;98643.34;;;17.54;41.40
53340;BME280;46212;50.258;19.062;2023-05-11T08:35:47;98640.09;;;17.56;41.80
53340;BME280;46212;50.258;19.062;2023-05-11T08:38:13;98640.59;;;17.60;41.98
53340;BME280;46212;50.258;19.062;2023-05-11T08:40:39;98651.56;;;17.80;41.21
53340;BME280;46212;50.258;19.062;2023-05-11T08:43:14;98644.25;;;17.88;41.58
53340;BME280;46212;50.258;19.062;2023-05-11T08:45:44;98643.25;;;18.08;40.54
53340;BME280;46212;50.258;19.062;2023-05-11T08:48:13;98642.50;;;18.13;41.05
53340;BME280;46212;50.258;19.062;2023-05-11T08:50:40;98643.53;;;18.16;41.63
53340;BME280;46212;50.258;19.062;2023-05-11T08:53:05;98640.50;;;18.36;41.32
53340;BME280;46212;50.258;19.062;2023-05-11T08:55:32;98651.44;;;18.62;39.89
53340;BME280;46212;50.258;19.062;2023-05-11T08:57:59;98641.78;;;18.74;39.56
53340;BME280;46212;50.258;19.062;2023-05-11T09:00:25;98644.31;;;18.83;39.95
53340;BME280;46212;50.258;19.062;2023-05-11T09:02:52;98640.22;;;18.84;39.85
53340;BME280;46212;50.258;19.062;2023-05-11T09:05:18;98635.34;;;19.06;40.44
53340;BME280;46212;50.258;19.062;2023-05-11T09:07:46;98630.94;;;19.33;38.80
53340;BME280;46212;50.258;19.062;2023-05-11T09:10:14;98638.34;;;19.31;38.33
53340;BME280;46212;50.258;19.062;2023-05-11T09:12:40;98641.16;;;19.31;37.99
53340;BME280;46212;50.258;19.062;2023-05-11T09:15:06;98638.84;;;19.40;37.88
53340;BME280;46212;50.258;19.062;2023-05-11T09:17:31;98633.16;;;19.57;36.51
53340;BME280;46212;50.258;19.062;2023-05-11T09:20:02;98632.59;;;19.70;35.82
53340;BME280;46212;50.258;19.062;2023-05-11T09:22:39;98618.00;;;19.82;35.38
53340;BME280;46212;50.258;19.062;2023-05-11T09:25:05;98627.28;;;20.07;37.68
53340;BME280;46212;50.258;19.062;2023-05-11T09:27:31;98622.78;;;20.34;37.19
53340;BME280;46212;50.258;19.062;2023-05-11T09:30:08;98627.44;;;20.55;32.06
53340;BME280;46212;50.258;19.062;2023-05-11T09:32:52;98624.72;;;20.74;32.49
53340;BME280;46212;50.258;19.062;2023-05-11T09:35:25;98621.47;;;20.94;29.35
53340;BME280;46212;50.258;19.062;2023-05-11T09:40:34;98624.47;;;21.02;30.58
53340;BME280;46212;50.258;19.062;2023-05-11T09:43:00;98617.03;;;21.04;30.31
53340;BME280;46212;50.258;19.062;2023-05-11T09:48:02;98623.22;;;20.97;29.70
53340;BME280;46212;50.258;19.062;2023-05-11T09:50:34;98628.06;;;20.97;27.49
53340;BME280;46212;50.258;19.062;2023-05-11T09:53:00;98622.47;;;20.97;28.61
53340;BME280;46212;50.258;19.062;2023-05-11T09:55:25;98611.81;;;20.90;27.00
53340;BME280;46212;50.258;19.062;2023-05-11T09:57:56;98616.41;;;20.93;27.13
53340;BME280;46212;50.258;19.062;2023-05-11T10:00:21;98616.22;;;20.85;26.93
53340;BME280;46212;50.258;19.062;2023-05-11T10:03:02;98612.50;;;20.72;26.12
53340;BME280;46212;50.258;19.062;2023-05-11T10:05:32;98609.53;;;20.64;25.54
53340;BME280;46212;50.258;19.062;2023-05-11T10:07:59;98610.22;;;20.40;25.24
53340;BME280;46212;50.258;19.062;2023-05-11T10:10:26;98609.53;;;20.34;25.58
53340;BME280;46212;50.258;19.062;2023-05-11T10:12:54;98600.59;;;20.36;25.47
53340;BME280;46212;50.258;19.062;2023-05-11T10:15:19;98599.84;;;20.30;27.54
53340;BME280;46212;50.258;19.062;2023-05-11T10:17:50;98609.47;;;20.40;26.57
53340;BME280;46212;50.258;19.062;2023-05-11T10:20:16;98610.19;;;20.46;27.11
53340;BME280;46212;50.258;19.062;2023-05-11T10:22:43;98589.75;;;20.51;25.68
53340;BME280;46212;50.258;19.062;2023-05-11T10:25:09;98601.75;;;20.51;27.10
53340;BME280;46212;50.258;19.062;2023-05-11T10:27:35;98609.94;;;20.44;26.57
53340;BME280;46212;50.258;19.062;2023-05-11T10:30:02;98607.34;;;20.51;26.25
53340;BME280;46212;50.258;19.062;2023-05-11T10:32:28;98598.41;;;20.53;26.32
53340;BME280;46212;50.258;19.062;2023-05-11T10:34:55;98600.41;;;20.58;27.19
53340;BME280;46212;50.258;19.062;2023-05-11T10:37:21;98592.91;;;20.66;26.27
53340;BME280;46212;50.258;19.062;2023-05-11T10:39:47;98588.56;;;20.71;28.01
53340;BME280;46212;50.258;19.062;2023-05-11T10:45:13;98597.13;;;20.78;25.97
53340;BME280;46212;50.258;19.062;2023-05-11T10:53:45;98574.03;;;20.91;23.50
53340;BME280;46212;50.258;19.062;2023-05-11T11:01:56;98581.19;;;20.92;24.18
53340;BME280;46212;50.258;19.062;2023-05-11T11:04:23;98561.16;;;21.01;23.56
53340;BME280;46212;50.258;19.062;2023-05-11T11:07:03;98573.81;;;21.13;24.01
53340;BME280;46212;50.258;19.062;2023-05-11T11:12:13;98576.13;;;21.33;24.00
53340;BME280;46212;50.258;19.062;2023-05-11T11:17:20;98569.75;;;21.51;22.92
53340;BME280;46212;50.258;19.062;2023-05-11T11:19:46;98577.59;;;21.58;22.68
53340;BME280;46212;50.258;19.062;2023-05-11T11:24:59;98588.28;;;21.79;23.75
53340;BME280;46212;50.258;19.062;2023-05-11T11:30:20;98567.41;;;21.93;22.93
53340;BME280;46212;50.258;19.062;2023-05-11T11:32:47;98567.16;;;22.09;23.87
53340;BME280;46212;50.258;19.062;2023-05-11T11:40:57;98569.84;;;22.47;25.36
53340;BME280;46212;50.258;19.062;2023-05-11T11:43:25;98558.38;;;22.58;25.51
53340;BME280;46212;50.258;19.062;2023-05-11T11:45:53;98561.88;;;22.64;24.34
53340;BME280;46212;50.258;19.062;2023-05-11T11:48:27;98571.00;;;22.70;25.19
53340;BME280;46212;50.258;19.062;2023-05-11T11:56:35;98563.88;;;22.95;22.99
53340;BME280;46212;50.258;19.062;2023-05-11T12:01:21;98566.25;;;23.17;25.28
53340;BME280;46212;50.258;19.062;2023-05-11T12:03:57;98561.13;;;23.29;25.99
53340;BME280;46212;50.258;19.062;2023-05-11T12:06:38;98558.34;;;23.42;26.33
53340;BME280;46212;50.258;19.062;2023-05-11T12:09:04;98557.69;;;23.49;25.26
53340;BME280;46212;50.258;19.062;2023-05-11T12:11:30;98556.56;;;23.65;25.38
53340;BME280;46212;50.258;19.062;2023-05-11T12:13:56;98557.06;;;23.98;25.36
53340;BME280;46212;50.258;19.062;2023-05-11T12:16:22;98552.03;;;24.17;24.79
53340;BME280;46212;50.258;19.062;2023-05-11T12:18:55;98549.22;;;24.04;24.09
53340;BME280;46212;50.258;19.062;2023-05-11T12:21:22;98564.41;;;23.80;25.40
53340;BME280;46212;50.258;19.062;2023-05-11T12:24:14;98564.28;;;23.86;25.29
53340;BME280;46212;50.258;19.062;2023-05-11T12:26:39;98553.88;;;24.14;24.63
53340;BME280;46212;50.258;19.062;2023-05-11T12:29:07;98556.56;;;24.20;23.80
53340;BME280;46212;50.258;19.062;2023-05-11T12:31:37;98545.41;;;24.14;23.70
53340;BME280;46212;50.258;19.062;2023-05-11T12:34:02;98550.47;;;24.29;23.94
53340;BME280;46212;50.258;19.062;2023-05-11T12:36:28;98551.38;;;24.52;23.10
53340;BME280;46212;50.258;19.062;2023-05-11T12:38:54;98549.09;;;24.71;23.91
53340;BME280;46212;50.258;19.062;2023-05-11T12:41:20;98548.09;;;25.18;25.26
53340;BME280;46212;50.258;19.062;2023-05-11T12:43:47;98543.94;;;25.55;23.88
53340;BME280;46212;50.258;19.062;2023-05-11T12:46:13;98537.16;;;25.58;23.76
53340;BME280;46212;50.258;19.062;2023-05-11T12:48:39;98541.78;;;25.83;22.73
53340;BME280;46212;50.258;19.062;2023-05-11T12:51:05;98529.00;;;26.58;21.83
53340;BME280;46212;50.258;19.062;2023-05-11T12:53:34;98521.44;;;27.86;20.59
53340;BME280;46212;50.258;19.062;2023-05-11T12:56:03;98531.00;;;28.55;20.56
53340;BME280;46212;50.258;19.062;2023-05-11T12:58:39;98530.22;;;31.01;18.01
53340;BME280;46212;50.258;19.062;2023-05-11T13:01:05;98524.84;;;29.25;18.23
53340;BME280;46212;50.258;19.062;2023-05-11T13:03:33;98518.50;;;31.54;17.10
53340;BME280;46212;50.258;19.062;2023-05-11T13:06:11;98520.38;;;33.13;15.40
53340;BME280;46212;50.258;19.062;2023-05-11T13:08:38;98524.22;;;34.40;14.81
53340;BME280;46212;50.258;19.062;2023-05-11T13:11:23;98511.13;;;36.21;13.40
53340;BME280;46212;50.258;19.062;2023-05-11T13:13:52;98520.59;;;37.33;12.75
53340;BME280;46212;50.258;19.062;2023-05-11T13:19:04;98515.09;;;38.60;12.08
53340;BME280;46212;50.258;19.062;2023-05-11T13:21:30;98505.97;;;39.85;11.95
53340;BME280;46212;50.258;19.062;2023-05-11T13:23:57;98508.81;;;39.83;11.60
53340;BME280;46212;50.258;19.062;2023-05-11T13:26:24;98506.38;;;34.88;13.90
53340;BME280;46212;50.258;19.062;2023-05-11T13:28:49;98504.28;;;34.42;14.59
53340;BME280;46212;50.258;19.062;2023-05-11T13:31:15;98504.41;;;31.97;16.16
53340;BME280;46212;50.258;19.062;2023-05-11T13:33:43;98511.97;;;30.77;17.19
53340;BME280;46212;50.258;19.062;2023-05-11T13:36:08;98506.63;;;31.48;16.76
53340;BME280;46212;50.258;19.062;2023-05-11T13:38:34;98499.81;;;35.47;14.15
53340;BME280;46212;50.258;19.062;2023-05-11T13:40:59;98500.09;;;36.70;13.16
53340;BME280;46212;50.258;19.062;2023-05-11T13:43:24;98502.75;;;31.94;16.01
53340;BME280;46212;50.258;19.062;2023-05-11T13:45:50;98497.41;;;32.59;16.35
53340;BME280;46212;50.258;19.062;2023-05-11T13:48:15;98498.03;;;30.91;16.86
53340;BME280;46212;50.258;19.062;2023-05-11T13:50:41;98486.94;;;34.16;14.92